Kramer, ND

12:41 AM CDT on April 19, 2015 (GMT -0500)
RAWS | | Change Station
CLOSE
Current Station
Personal Weather Station
Location: Upham, ND
Elevation: 1439 ft
Nearby Weather Stations
Active Advisory: Flood Warning

Elev 1439 ft 48.62 °N, 100.73 °W | Updated 55 minutes ago

Rain
Rain
47 °F
Feels Like 44 °F
N
7
Wind Variable Wind from West
Gusts 10.0 mph

Today
High -- | Low -- °F
--% Chance of Precip.
Yesterday
High -- | Low -- °F
Precip. -- in
6:44 AM 8:39 PM
New Moon, 0% visible
Pressure 29.95 in
Visibility 10.0 miles
Clouds Scattered Clouds 5500 ft
Windchill 44 °F
Dew Point 47 °F
Humidity 100%
Rainfall in
Snow Depth Not available.
UV 0 out of 12
Pollen 10.00 out of 12
Air Quality Not available.
Flu Activity Regional
METAR KMIB 190458Z AUTO 31016G25KT 10SM SCT055 08/06 A2992 RMK AO2 DZE17DZB26E39 SLP140 P0000 T00800059 $

More Conditions Fewer Conditions

Pressure 29.95 in
Visibility 10.0 miles
Clouds Scattered Clouds 5500 ft
Windchill 44 °F
Dew Point 47 °F
Humidity 100%
Rainfall in
Snow Depth Not available.
UV 0 out of 12
Pollen 10.00 out of 12
Air Quality Not available.
Flu Activity Regional
METAR KMIB 190458Z AUTO 31016G25KT 10SM SCT055 08/06 A2992 RMK AO2 DZE17DZB26E39 SLP140 P0000 T00800059 $

More Conditions Fewer Conditions

10-Day Weather Forecast

Almanac

Astronomy

Apr. 19, 2015 Rise Set
Actual Time
Civil Twilight
Nautical Twilight
Astronomical Twilight
Moon
Length of Visible Light
Length of Day
Tomorrow will be .
, % of the Moon is Illuminated

Today's Extremes

State Highs State Lows

Community

WunderPhotos

Upload Photos

1,814,725 photos uploaded!

WunderBlogs® & News

Nearby

Air Quality

  Air Quality AQ Index Pollutant
Not available.

Snow Depth

Station Depth Elevation

Earthquake Activity

City Distance Mag. Time & Date
Minimum magnitude displayed is 2.5.

Coastal Water Temperatures

Place Temperature

Stations

Nearby Weather Stations

Station Location Temp. Windchill Dew Point Humidity Wind Precip. Elev Updated Type
                   
Flood Warning
Statement as of 1:40 PM CDT on April 17, 2015

The Flood Warning continues for
the Souris river near Westhope.
* Until further notice.
* At 1:00 PM Friday the stage was 10.0 feet.
* Flood stage is 10.0 feet.
* Forecast... the river will continue rising to near 10.1 feet by
Monday early afternoon then begin falling.
* Forecast... the river will remain near 10.0 feet.
* Impact... at 10.0 feet... water is almost valley-wide, but the area
flooded is grass covered and no buildings are affected.



             Fld observed forecasts (1pm)
location stg stg day/time Sat sun Mon Tue Wed

Souris river basin
Westhope 10 10.0 Fri 1 PM 9.9 10.0 10.0 10.0 10.0


Lat... Lon 4900 10099 4900 10093 4886 10090 4875 10080
      4875 10088 4890 10099